sensor_id;sensor_type;location;lat;lon;timestamp;pressure;altitude;pressure_sealevel;temperature;humidity
42105;BME280;61464;51.472;5.712;2022-07-03T00:00:38;101560.72;;;23.68;57.91
42105;BME280;61464;51.472;5.712;2022-07-03T00:03:03;101556.25;;;23.69;57.87
42105;BME280;61464;51.472;5.712;2022-07-03T00:05:29;101544.03;;;23.68;57.61
42105;BME280;61464;51.472;5.712;2022-07-03T00:07:55;101552.78;;;23.68;58.08
42105;BME280;61464;51.472;5.712;2022-07-03T00:10:22;101554.63;;;23.68;57.95
42105;BME280;61464;51.472;5.712;2022-07-03T00:12:47;101542.44;;;23.67;57.99
42105;BME280;61464;51.472;5.712;2022-07-03T00:15:14;101540.56;;;23.67;57.82
42105;BME280;61464;51.472;5.712;2022-07-03T00:17:40;101540.00;;;23.65;57.95
42105;BME280;61464;51.472;5.712;2022-07-03T00:20:06;101540.56;;;23.67;57.99
42105;BME280;61464;51.472;5.712;2022-07-03T00:22:33;101545.28;;;23.65;57.85
42105;BME280;61464;51.472;5.712;2022-07-03T00:25:05;101547.94;;;23.65;57.71
42105;BME280;61464;51.472;5.712;2022-07-03T00:27:33;101552.44;;;23.65;57.85
42105;BME280;61464;51.472;5.712;2022-07-03T00:30:01;101547.94;;;23.65;57.93
42105;BME280;61464;51.472;5.712;2022-07-03T00:32:29;101541.00;;;23.64;57.77
42105;BME280;61464;51.472;5.712;2022-07-03T00:34:56;101548.97;;;23.64;57.79
42105;BME280;61464;51.472;5.712;2022-07-03T00:37:23;101553.47;;;23.64;57.84
42105;BME280;61464;51.472;5.712;2022-07-03T00:39:50;101544.72;;;23.63;57.73
42105;BME280;61464;51.472;5.712;2022-07-03T00:42:17;101536.75;;;23.63;57.62
42105;BME280;61464;51.472;5.712;2022-07-03T00:44:52;101543.09;;;23.62;58.07
42105;BME280;61464;51.472;5.712;2022-07-03T00:47:22;101546.56;;;23.63;57.95
42105;BME280;61464;51.472;5.712;2022-07-03T00:49:52;101543.09;;;23.62;57.71
42105;BME280;61464;51.472;5.712;2022-07-03T00:52:21;101538.03;;;23.61;57.99
42105;BME280;61464;51.472;5.712;2022-07-03T00:54:56;101540.69;;;23.61;57.72
42105;BME280;61464;51.472;5.712;2022-07-03T00:57:28;101545.72;;;23.62;57.78
42105;BME280;61464;51.472;5.712;2022-07-03T00:59:55;101541.69;;;23.60;57.67
42105;BME280;61464;51.472;5.712;2022-07-03T01:05:29;101553.09;;;23.60;57.65
42105;BME280;61464;51.472;5.712;2022-07-03T01:08:36;101548.63;;;23.61;57.81
42105;BME280;61464;51.472;5.712;2022-07-03T01:11:37;101548.84;;;23.59;57.58
42105;BME280;61464;51.472;5.712;2022-07-03T01:17:40;101541.91;;;23.58;57.34
42105;BME280;61464;51.472;5.712;2022-07-03T01:20:11;101550.91;;;23.57;57.56
42105;BME280;61464;51.472;5.712;2022-07-03T01:22:58;101556.00;;;23.59;57.61
42105;BME280;61464;51.472;5.712;2022-07-03T01:25:37;101553.56;;;23.57;57.38
42105;BME280;61464;51.472;5.712;2022-07-03T01:28:26;101571.31;;;23.57;57.25
42105;BME280;61464;51.472;5.712;2022-07-03T01:30:54;101561.75;;;23.56;57.25
42105;BME280;61464;51.472;5.712;2022-07-03T01:33:26;101551.94;;;23.56;57.24
42105;BME280;61464;51.472;5.712;2022-07-03T01:38:28;101555.63;;;23.55;57.21
42105;BME280;61464;51.472;5.712;2022-07-03T01:40:56;101548.69;;;23.54;57.28
42105;BME280;61464;51.472;5.712;2022-07-03T01:43:30;101564.38;;;23.56;57.11
42105;BME280;61464;51.472;5.712;2022-07-03T01:45:59;101555.06;;;23.53;57.11
42105;BME280;61464;51.472;5.712;2022-07-03T01:48:27;101560.13;;;23.55;56.94
42105;BME280;61464;51.472;5.712;2022-07-03T01:50:55;101565.66;;;23.53;57.07
42105;BME280;61464;51.472;5.712;2022-07-03T01:53:25;101560.34;;;23.53;57.02
42105;BME280;61464;51.472;5.712;2022-07-03T01:55:58;101565.66;;;23.53;56.98
42105;BME280;61464;51.472;5.712;2022-07-03T01:58:25;101572.81;;;23.53;57.22
42105;BME280;61464;51.472;5.712;2022-07-03T02:01:21;101568.31;;;23.53;57.16
42105;BME280;61464;51.472;5.712;2022-07-03T02:04:08;101571.16;;;23.52;57.15
42105;BME280;61464;51.472;5.712;2022-07-03T02:09:26;101560.78;;;23.50;56.73
42105;BME280;61464;51.472;5.712;2022-07-03T02:11:54;101554.69;;;23.49;56.73
42105;BME280;61464;51.472;5.712;2022-07-03T02:14:31;101554.69;;;23.49;56.98
42105;BME280;61464;51.472;5.712;2022-07-03T02:17:20;101559.19;;;23.49;56.67
42105;BME280;61464;51.472;5.712;2022-07-03T02:19:55;101555.75;;;23.48;56.59
42105;BME280;61464;51.472;5.712;2022-07-03T02:22:57;101559.41;;;23.47;56.55
42105;BME280;61464;51.472;5.712;2022-07-03T02:25:36;101557.81;;;23.46;56.52
42105;BME280;61464;51.472;5.712;2022-07-03T02:30:29;101554.31;;;23.46;56.37
42105;BME280;61464;51.472;5.712;2022-07-03T02:32:58;101557.81;;;23.46;56.35
42105;BME280;61464;51.472;5.712;2022-07-03T02:35:31;101555.38;;;23.45;56.20
42105;BME280;61464;51.472;5.712;2022-07-03T02:38:20;101568.63;;;23.45;56.16
42105;BME280;61464;51.472;5.712;2022-07-03T02:41:14;101556.16;;;23.45;56.30
42105;BME280;61464;51.472;5.712;2022-07-03T02:44:01;101558.81;;;23.45;56.40
42105;BME280;61464;51.472;5.712;2022-07-03T02:55:42;101557.22;;;23.44;56.29
42105;BME280;61464;51.472;5.712;2022-07-03T02:58:27;101564.34;;;23.44;56.47
42105;BME280;61464;51.472;5.712;2022-07-03T03:01:44;101558.25;;;23.43;56.32
42105;BME280;61464;51.472;5.712;2022-07-03T03:04:31;101561.94;;;23.42;56.55
42105;BME280;61464;51.472;5.712;2022-07-03T03:07:10;101563.75;;;23.42;56.44
42105;BME280;61464;51.472;5.712;2022-07-03T03:09:44;101553.16;;;23.42;56.33
42105;BME280;61464;51.472;5.712;2022-07-03T03:12:12;101557.66;;;23.41;56.16
42105;BME280;61464;51.472;5.712;2022-07-03T03:14:45;101561.09;;;23.42;56.19
42105;BME280;61464;51.472;5.712;2022-07-03T03:17:24;101560.31;;;23.41;56.12
42105;BME280;61464;51.472;5.712;2022-07-03T03:19:56;101560.31;;;23.41;56.28
42105;BME280;61464;51.472;5.712;2022-07-03T03:25:32;101557.06;;;23.39;56.26
42105;BME280;61464;51.472;5.712;2022-07-03T03:27:59;101544.88;;;23.38;56.37
42105;BME280;61464;51.472;5.712;2022-07-03T03:30:25;101564.00;;;23.40;56.24
42105;BME280;61464;51.472;5.712;2022-07-03T03:32:51;101567.66;;;23.39;56.55
42105;BME280;61464;51.472;5.712;2022-07-03T03:35:17;101575.03;;;23.37;56.34
42105;BME280;61464;51.472;5.712;2022-07-03T03:37:45;101579.91;;;23.40;56.21
42105;BME280;61464;51.472;5.712;2022-07-03T03:40:12;101585.19;;;23.40;56.24
42105;BME280;61464;51.472;5.712;2022-07-03T03:42:37;101579.31;;;23.38;56.33
42105;BME280;61464;51.472;5.712;2022-07-03T03:45:04;101580.91;;;23.39;56.21
42105;BME280;61464;51.472;5.712;2022-07-03T03:47:30;101580.13;;;23.39;56.24
42105;BME280;61464;51.472;5.712;2022-07-03T03:49:55;101579.31;;;23.38;56.27
42105;BME280;61464;51.472;5.712;2022-07-03T03:52:22;101582.19;;;23.37;56.00
42105;BME280;61464;51.472;5.712;2022-07-03T03:54:48;101585.63;;;23.37;56.18
42105;BME280;61464;51.472;5.712;2022-07-03T03:57:20;101574.22;;;23.37;56.06
42105;BME280;61464;51.472;5.712;2022-07-03T03:59:46;101584.81;;;23.37;56.03
42105;BME280;61464;51.472;5.712;2022-07-03T04:02:13;101582.19;;;23.37;56.27
42105;BME280;61464;51.472;5.712;2022-07-03T04:04:39;101579.53;;;23.37;56.00
42105;BME280;61464;51.472;5.712;2022-07-03T04:07:05;101580.53;;;23.36;56.16
42105;BME280;61464;51.472;5.712;2022-07-03T04:09:31;101578.72;;;23.36;56.12
42105;BME280;61464;51.472;5.712;2022-07-03T04:11:57;101584.81;;;23.37;56.26
42105;BME280;61464;51.472;5.712;2022-07-03T04:14:23;101581.38;;;23.36;56.26
42105;BME280;61464;51.472;5.712;2022-07-03T04:16:49;101580.53;;;23.36;55.88
42105;BME280;61464;51.472;5.712;2022-07-03T04:19:15;101584.25;;;23.35;56.46
42105;BME280;61464;51.472;5.712;2022-07-03T04:21:41;101578.13;;;23.34;56.08
42105;BME280;61464;51.472;5.712;2022-07-03T04:24:07;101577.91;;;23.36;56.19
42105;BME280;61464;51.472;5.712;2022-07-03T04:26:33;101582.59;;;23.34;56.19
42105;BME280;61464;51.472;5.712;2022-07-03T04:28:59;101586.88;;;23.35;56.25
42105;BME280;61464;51.472;5.712;2022-07-03T04:31:25;101579.97;;;23.34;56.16
42105;BME280;61464;51.472;5.712;2022-07-03T04:33:50;101587.09;;;23.33;56.32
42105;BME280;61464;51.472;5.712;2022-07-03T04:36:17;101590.56;;;23.34;56.16
42105;BME280;61464;51.472;5.712;2022-07-03T04:38:43;101587.91;;;23.34;56.16
42105;BME280;61464;51.472;5.712;2022-07-03T04:41:09;101587.91;;;23.34;56.23
42105;BME280;61464;51.472;5.712;2022-07-03T04:43:35;101588.16;;;23.32;56.07
42105;BME280;61464;51.472;5.712;2022-07-03T04:46:04;101606.44;;;23.34;56.34
42105;BME280;61464;51.472;5.712;2022-07-03T04:48:30;101590.81;;;23.32;55.91
42105;BME280;61464;51.472;5.712;2022-07-03T04:50:57;101586.31;;;23.33;56.19
42105;BME280;61464;51.472;5.712;2022-07-03T04:53:23;101599.75;;;23.31;56.14
42105;BME280;61464;51.472;5.712;2022-07-03T04:55:49;101600.56;;;23.32;56.13
42105;BME280;61464;51.472;5.712;2022-07-03T04:58:15;101600.56;;;23.32;56.14
42105;BME280;61464;51.472;5.712;2022-07-03T05:00:42;101606.44;;;23.34;56.20
42105;BME280;61464;51.472;5.712;2022-07-03T05:03:08;101606.44;;;23.34;56.27
42105;BME280;61464;51.472;5.712;2022-07-03T05:05:33;101605.66;;;23.33;55.93
42105;BME280;61464;51.472;5.712;2022-07-03T05:07:59;101601.97;;;23.34;55.79
42105;BME280;61464;51.472;5.712;2022-07-03T05:10:26;101601.16;;;23.34;56.14
42105;BME280;61464;51.472;5.712;2022-07-03T05:12:53;101600.34;;;23.33;56.04
42105;BME280;61464;51.472;5.712;2022-07-03T05:15:19;101607.28;;;23.34;56.08
42105;BME280;61464;51.472;5.712;2022-07-03T05:17:45;101613.38;;;23.35;55.92
42105;BME280;61464;51.472;5.712;2022-07-03T05:20:12;101614.19;;;23.35;55.78
42105;BME280;61464;51.472;5.712;2022-07-03T05:23:00;101610.94;;;23.33;55.98
42105;BME280;61464;51.472;5.712;2022-07-03T05:25:28;101601.41;;;23.32;56.00
42105;BME280;61464;51.472;5.712;2022-07-03T05:27:55;101611.75;;;23.34;55.84
42105;BME280;61464;51.472;5.712;2022-07-03T05:30:22;101602.19;;;23.33;55.80
42105;BME280;61464;51.472;5.712;2022-07-03T05:32:49;101610.16;;;23.33;55.68
42105;BME280;61464;51.472;5.712;2022-07-03T05:35:15;101608.50;;;23.32;55.85
42105;BME280;61464;51.472;5.712;2022-07-03T05:37:41;101611.16;;;23.32;55.93
42105;BME280;61464;51.472;5.712;2022-07-03T05:40:07;101608.50;;;23.32;55.84
42105;BME280;61464;51.472;5.712;2022-07-03T05:42:34;101611.41;;;23.30;55.97
42105;BME280;61464;51.472;5.712;2022-07-03T05:45:01;101604.09;;;23.25;55.90
42105;BME280;61464;51.472;5.712;2022-07-03T05:47:27;101609.19;;;23.27;55.80
42105;BME280;61464;51.472;5.712;2022-07-03T05:49:54;101601.25;;;23.27;55.87
42105;BME280;61464;51.472;5.712;2022-07-03T05:52:20;101607.34;;;23.27;55.87
42105;BME280;61464;51.472;5.712;2022-07-03T05:54:45;101606.75;;;23.25;56.06
42105;BME280;61464;51.472;5.712;2022-07-03T05:57:11;101614.50;;;23.27;55.73
42105;BME280;61464;51.472;5.712;2022-07-03T05:59:38;101610.22;;;23.26;55.82
42105;BME280;61464;51.472;5.712;2022-07-03T06:02:05;101616.34;;;23.26;55.91
42105;BME280;61464;51.472;5.712;2022-07-03T06:04:31;101621.63;;;23.26;55.82
42105;BME280;61464;51.472;5.712;2022-07-03T06:06:56;101621.03;;;23.24;55.89
42105;BME280;61464;51.472;5.712;2022-07-03T06:09:23;101620.84;;;23.26;55.97
42105;BME280;61464;51.472;5.712;2022-07-03T06:11:49;101630.59;;;23.25;56.05
42105;BME280;61464;51.472;5.712;2022-07-03T06:14:15;101635.69;;;23.27;55.76
42105;BME280;61464;51.472;5.712;2022-07-03T06:16:41;101633.25;;;23.25;55.70
42105;BME280;61464;51.472;5.712;2022-07-03T06:19:07;101638.53;;;23.25;55.90
42105;BME280;61464;51.472;5.712;2022-07-03T06:21:33;101629.78;;;23.25;56.03
42105;BME280;61464;51.472;5.712;2022-07-03T06:23:59;101640.38;;;23.25;55.96
42105;BME280;61464;51.472;5.712;2022-07-03T06:26:26;101640.59;;;23.23;55.87
42105;BME280;61464;51.472;5.712;2022-07-03T06:28:52;101637.94;;;23.23;56.24
42105;BME280;61464;51.472;5.712;2022-07-03T06:31:18;101642.66;;;23.21;55.93
42105;BME280;61464;51.472;5.712;2022-07-03T06:33:44;101647.75;;;23.23;55.98
42105;BME280;61464;51.472;5.712;2022-07-03T06:36:10;101640.84;;;23.22;56.02
42105;BME280;61464;51.472;5.712;2022-07-03T06:38:35;101649.59;;;23.22;56.22
42105;BME280;61464;51.472;5.712;2022-07-03T06:41:01;101652.25;;;23.22;56.00
42105;BME280;61464;51.472;5.712;2022-07-03T06:43:27;101648.78;;;23.22;56.10
42105;BME280;61464;51.472;5.712;2022-07-03T06:45:53;101644.72;;;23.19;56.19
42105;BME280;61464;51.472;5.712;2022-07-03T06:48:19;101645.31;;;23.21;55.83
42105;BME280;61464;51.472;5.712;2022-07-03T06:50:46;101642.06;;;23.19;56.33
42105;BME280;61464;51.472;5.712;2022-07-03T06:53:12;101649.00;;;23.20;55.74
42105;BME280;61464;51.472;5.712;2022-07-03T06:55:37;101646.34;;;23.20;55.85
42105;BME280;61464;51.472;5.712;2022-07-03T06:58:03;101640.25;;;23.20;55.94
42105;BME280;61464;51.472;5.712;2022-07-03T07:00:29;101647.38;;;23.19;56.07
42105;BME280;61464;51.472;5.712;2022-07-03T07:02:55;101651.88;;;23.19;56.02
42105;BME280;61464;51.472;5.712;2022-07-03T07:05:21;101643.13;;;23.18;56.08
42105;BME280;61464;51.472;5.712;2022-07-03T07:07:48;101651.88;;;23.19;56.04
42105;BME280;61464;51.472;5.712;2022-07-03T07:10:14;101645.78;;;23.18;55.75
42105;BME280;61464;51.472;5.712;2022-07-03T07:12:40;101651.06;;;23.18;55.62
42105;BME280;61464;51.472;5.712;2022-07-03T07:15:06;101644.72;;;23.19;55.79
42105;BME280;61464;51.472;5.712;2022-07-03T07:17:32;101647.38;;;23.19;55.72
42105;BME280;61464;51.472;5.712;2022-07-03T07:19:58;101646.56;;;23.19;55.94
42105;BME280;61464;51.472;5.712;2022-07-03T07:22:24;101651.06;;;23.18;55.82
42105;BME280;61464;51.472;5.712;2022-07-03T07:24:51;101640.91;;;23.15;55.68
42105;BME280;61464;51.472;5.712;2022-07-03T07:27:17;101642.53;;;23.16;56.04
42105;BME280;61464;51.472;5.712;2022-07-03T07:29:43;101649.22;;;23.19;55.73
42105;BME280;61464;51.472;5.712;2022-07-03T07:32:09;101652.06;;;23.17;55.94
42105;BME280;61464;51.472;5.712;2022-07-03T07:34:35;101656.38;;;23.18;55.66
42105;BME280;61464;51.472;5.712;2022-07-03T07:37:01;101650.25;;;23.18;55.67
42105;BME280;61464;51.472;5.712;2022-07-03T07:39:26;101654.72;;;23.17;55.82
42105;BME280;61464;51.472;5.712;2022-07-03T07:41:52;101660.84;;;23.18;55.97
42105;BME280;61464;51.472;5.712;2022-07-03T07:44:18;101662.66;;;23.17;55.92
42105;BME280;61464;51.472;5.712;2022-07-03T07:46:44;101667.97;;;23.17;56.02
42105;BME280;61464;51.472;5.712;2022-07-03T07:49:09;101659.44;;;23.15;55.77
42105;BME280;61464;51.472;5.712;2022-07-03T07:51:35;101660.03;;;23.17;55.88
42105;BME280;61464;51.472;5.712;2022-07-03T07:54:01;101659.69;;;23.14;55.81
42105;BME280;61464;51.472;5.712;2022-07-03T07:56:27;101664.53;;;23.17;55.61
42105;BME280;61464;51.472;5.712;2022-07-03T07:58:53;101660.84;;;23.18;55.69
42105;BME280;61464;51.472;5.712;2022-07-03T08:01:19;101661.88;;;23.17;55.88
42105;BME280;61464;51.472;5.712;2022-07-03T08:04:04;101657.63;;;23.16;55.94
42105;BME280;61464;51.472;5.712;2022-07-03T08:06:48;101652.31;;;23.16;55.79
42105;BME280;61464;51.472;5.712;2022-07-03T08:09:15;101662.91;;;23.16;55.96
42105;BME280;61464;51.472;5.712;2022-07-03T08:11:41;101667.38;;;23.15;55.68
42105;BME280;61464;51.472;5.712;2022-07-03T08:14:06;101659.44;;;23.15;55.63
42105;BME280;61464;51.472;5.712;2022-07-03T08:16:34;101663.13;;;23.14;55.74
42105;BME280;61464;51.472;5.712;2022-07-03T08:19:00;101663.13;;;23.14;55.49
42105;BME280;61464;51.472;5.712;2022-07-03T08:21:26;101662.09;;;23.15;55.66
42105;BME280;61464;51.472;5.712;2022-07-03T08:23:53;101659.69;;;23.14;55.55
42105;BME280;61464;51.472;5.712;2022-07-03T08:26:19;101654.38;;;23.14;55.65
42105;BME280;61464;51.472;5.712;2022-07-03T08:28:44;101660.47;;;23.14;55.64
42105;BME280;61464;51.472;5.712;2022-07-03T08:31:10;101653.56;;;23.13;55.64
42105;BME280;61464;51.472;5.712;2022-07-03T08:33:36;101657.03;;;23.14;55.92
42105;BME280;61464;51.472;5.712;2022-07-03T08:36:04;101659.69;;;23.14;55.91
42105;BME280;61464;51.472;5.712;2022-07-03T08:38:32;101655.97;;;23.15;56.00
42105;BME280;61464;51.472;5.712;2022-07-03T08:41:01;101653.34;;;23.15;56.48
42105;BME280;61464;51.472;5.712;2022-07-03T08:43:27;101661.28;;;23.15;56.55
42105;BME280;61464;51.472;5.712;2022-07-03T08:45:54;101661.28;;;23.15;56.45
42105;BME280;61464;51.472;5.712;2022-07-03T08:48:22;101652.31;;;23.16;56.76
42105;BME280;61464;51.472;5.712;2022-07-03T08:50:50;101647.03;;;23.16;56.66
42105;BME280;61464;51.472;5.712;2022-07-03T08:53:18;101647.81;;;23.16;56.53
42105;BME280;61464;51.472;5.712;2022-07-03T08:55:47;101646.78;;;23.17;56.57
42105;BME280;61464;51.472;5.712;2022-07-03T08:58:14;101652.06;;;23.17;57.01
42105;BME280;61464;51.472;5.712;2022-07-03T09:00:41;101654.50;;;23.19;56.74
42105;BME280;61464;51.472;5.712;2022-07-03T09:03:11;101655.56;;;23.18;57.04
42105;BME280;61464;51.472;5.712;2022-07-03T09:05:38;101649.44;;;23.17;56.83
42105;BME280;61464;51.472;5.712;2022-07-03T09:08:07;101651.88;;;23.19;57.04
42105;BME280;61464;51.472;5.712;2022-07-03T09:10:33;101645.78;;;23.18;57.25
42105;BME280;61464;51.472;5.712;2022-07-03T09:13:00;101644.13;;;23.17;57.49
42105;BME280;61464;51.472;5.712;2022-07-03T09:15:26;101652.66;;;23.19;57.57
42105;BME280;61464;51.472;5.712;2022-07-03T09:18:06;101648.41;;;23.18;57.30
42105;BME280;61464;51.472;5.712;2022-07-03T09:20:34;101657.16;;;23.19;57.68
42105;BME280;61464;51.472;5.712;2022-07-03T09:23:17;101655.09;;;23.21;57.48
42105;BME280;61464;51.472;5.712;2022-07-03T09:26:02;101653.50;;;23.20;57.74
42105;BME280;61464;51.472;5.712;2022-07-03T09:28:46;101654.31;;;23.20;57.62
42105;BME280;61464;51.472;5.712;2022-07-03T09:31:24;101656.94;;;23.20;57.80
42105;BME280;61464;51.472;5.712;2022-07-03T09:33:58;101655.09;;;23.21;58.03
42105;BME280;61464;51.472;5.712;2022-07-03T09:36:45;101652.66;;;23.19;57.61
42105;BME280;61464;51.472;5.712;2022-07-03T09:39:24;101656.94;;;23.20;57.58
42105;BME280;61464;51.472;5.712;2022-07-03T09:44:44;101655.31;;;23.19;57.31
42105;BME280;61464;51.472;5.712;2022-07-03T09:47:24;101659.00;;;23.18;57.29
42105;BME280;61464;51.472;5.712;2022-07-03T09:50:02;101657.16;;;23.19;57.35
42105;BME280;61464;51.472;5.712;2022-07-03T09:52:44;101664.31;;;23.18;57.06
42105;BME280;61464;51.472;5.712;2022-07-03T09:57:41;101664.31;;;23.18;57.28
42105;BME280;61464;51.472;5.712;2022-07-03T10:00:32;101674.69;;;23.20;56.89
42105;BME280;61464;51.472;5.712;2022-07-03T10:03:04;101666.75;;;23.20;57.11
42105;BME280;61464;51.472;5.712;2022-07-03T10:10:41;101665.69;;;23.21;57.11
42105;BME280;61464;51.472;5.712;2022-07-03T10:13:08;101656.16;;;23.20;57.26
42105;BME280;61464;51.472;5.712;2022-07-03T10:15:36;101663.50;;;23.18;57.42
42105;BME280;61464;51.472;5.712;2022-07-03T10:18:06;101665.69;;;23.21;57.01
42105;BME280;61464;51.472;5.712;2022-07-03T10:23:06;101663.03;;;23.21;56.94
42105;BME280;61464;51.472;5.712;2022-07-03T10:25:33;101667.53;;;23.20;56.69
42105;BME280;61464;51.472;5.712;2022-07-03T10:28:00;101671.78;;;23.21;56.81
42105;BME280;61464;51.472;5.712;2022-07-03T10:30:27;101677.94;;;23.22;56.93
42105;BME280;61464;51.472;5.712;2022-07-03T10:32:55;101673.06;;;23.19;56.81
42105;BME280;61464;51.472;5.712;2022-07-03T10:35:34;101680.78;;;23.20;56.89
42105;BME280;61464;51.472;5.712;2022-07-03T10:44:01;101674.44;;;23.21;56.94
42105;BME280;61464;51.472;5.712;2022-07-03T10:46:46;101682.38;;;23.21;56.77
42105;BME280;61464;51.472;5.712;2022-07-03T10:49:12;101683.44;;;23.20;56.53
42105;BME280;61464;51.472;5.712;2022-07-03T10:54:29;101693.81;;;23.22;56.29
42105;BME280;61464;51.472;5.712;2022-07-03T11:02:48;101680.34;;;23.23;56.43
42105;BME280;61464;51.472;5.712;2022-07-03T11:05:21;101685.41;;;23.25;56.99
42105;BME280;61464;51.472;5.712;2022-07-03T11:13:21;101679.31;;;23.24;56.55
42105;BME280;61464;51.472;5.712;2022-07-03T11:15:54;101674.03;;;23.24;56.66
42105;BME280;61464;51.472;5.712;2022-07-03T11:18:32;101679.09;;;23.26;56.41
42105;BME280;61464;51.472;5.712;2022-07-03T11:21:08;101684.41;;;23.26;56.58
42105;BME280;61464;51.472;5.712;2022-07-03T11:26:25;101666.66;;;23.26;56.46
42105;BME280;61464;51.472;5.712;2022-07-03T11:28:53;101663.81;;;23.28;56.22
42105;BME280;61464;51.472;5.712;2022-07-03T11:31:22;101661.75;;;23.30;56.02
42105;BME280;61464;51.472;5.712;2022-07-03T11:44:05;101664.59;;;23.28;56.00
42105;BME280;61464;51.472;5.712;2022-07-03T11:46:37;101665.19;;;23.30;56.36
42105;BME280;61464;51.472;5.712;2022-07-03T11:49:12;101663.56;;;23.29;55.79
42105;BME280;61464;51.472;5.712;2022-07-03T11:51:53;101663.81;;;23.28;55.52
42105;BME280;61464;51.472;5.712;2022-07-03T11:54:18;101666.22;;;23.29;55.72
42105;BME280;61464;51.472;5.712;2022-07-03T11:56:44;101667.03;;;23.30;55.59
42105;BME280;61464;51.472;5.712;2022-07-03T11:59:10;101673.72;;;23.33;56.23
42105;BME280;61464;51.472;5.712;2022-07-03T12:01:38;101667.84;;;23.30;55.99
42105;BME280;61464;51.472;5.712;2022-07-03T12:04:17;101662.31;;;23.32;56.27
42105;BME280;61464;51.472;5.712;2022-07-03T12:06:58;101663.94;;;23.33;55.98
42105;BME280;61464;51.472;5.712;2022-07-03T12:09:34;101666.59;;;23.33;56.22
42105;BME280;61464;51.472;5.712;2022-07-03T12:14:49;101650.47;;;23.35;55.49
42105;BME280;61464;51.472;5.712;2022-07-03T12:17:24;101651.47;;;23.34;55.53
42105;BME280;61464;51.472;5.712;2022-07-03T12:19:58;101658.41;;;23.35;55.84
42105;BME280;61464;51.472;5.712;2022-07-03T12:22:33;101653.13;;;23.35;55.33
42105;BME280;61464;51.472;5.712;2022-07-03T12:25:06;101656.56;;;23.35;55.16
42105;BME280;61464;51.472;5.712;2022-07-03T12:27:38;101663.50;;;23.36;55.45
42105;BME280;61464;51.472;5.712;2022-07-03T12:30:07;101649.66;;;23.34;56.28
42105;BME280;61464;51.472;5.712;2022-07-03T12:32:33;101649.66;;;23.34;56.12
42105;BME280;61464;51.472;5.712;2022-07-03T12:35:00;101653.72;;;23.37;56.52
42105;BME280;61464;51.472;5.712;2022-07-03T12:37:35;101659.00;;;23.37;56.03
42105;BME280;61464;51.472;5.712;2022-07-03T12:40:03;101654.50;;;23.37;55.64
42105;BME280;61464;51.472;5.712;2022-07-03T12:42:29;101665.09;;;23.37;55.55
42105;BME280;61464;51.472;5.712;2022-07-03T12:45:02;101651.28;;;23.35;55.03
42105;BME280;61464;51.472;5.712;2022-07-03T12:47:30;101654.72;;;23.36;55.88
42105;BME280;61464;51.472;5.712;2022-07-03T12:50:02;101662.25;;;23.39;55.82
42105;BME280;61464;51.472;5.712;2022-07-03T12:52:29;101658.53;;;23.40;55.24
42105;BME280;61464;51.472;5.712;2022-07-03T12:54:56;101655.91;;;23.40;56.00
42105;BME280;61464;51.472;5.712;2022-07-03T12:57:24;101651.84;;;23.37;55.31
42105;BME280;61464;51.472;5.712;2022-07-03T13:00:15;101656.72;;;23.40;55.86
42105;BME280;61464;51.472;5.712;2022-07-03T13:02:47;101649.59;;;23.41;55.47
42105;BME280;61464;51.472;5.712;2022-07-03T13:05:24;101657.53;;;23.41;55.42
42105;BME280;61464;51.472;5.712;2022-07-03T13:07:55;101657.53;;;23.41;55.49
42105;BME280;61464;51.472;5.712;2022-07-03T13:10:22;101663.63;;;23.41;55.52
42105;BME280;61464;51.472;5.712;2022-07-03T13:12:53;101664.44;;;23.42;56.94
42105;BME280;61464;51.472;5.712;2022-07-03T13:15:23;101661.56;;;23.43;55.58
42105;BME280;61464;51.472;5.712;2022-07-03T13:22:56;101656.84;;;23.45;54.49
42105;BME280;61464;51.472;5.712;2022-07-03T13:25:23;101655.25;;;23.44;53.71
42105;BME280;61464;51.472;5.712;2022-07-03T13:27:49;101655.00;;;23.46;54.45
42105;BME280;61464;51.472;5.712;2022-07-03T13:30:18;101663.53;;;23.48;54.48
42105;BME280;61464;51.472;5.712;2022-07-03T13:32:45;101662.97;;;23.46;55.69
42105;BME280;61464;51.472;5.712;2022-07-03T13:35:11;101661.72;;;23.48;55.48
42105;BME280;61464;51.472;5.712;2022-07-03T13:37:37;101656.44;;;23.48;55.15
42105;BME280;61464;51.472;5.712;2022-07-03T13:40:04;101665.19;;;23.49;55.67
42105;BME280;61464;51.472;5.712;2022-07-03T13:42:30;101665.19;;;23.49;55.17
42105;BME280;61464;51.472;5.712;2022-07-03T13:44:57;101660.91;;;23.48;55.27
42105;BME280;61464;51.472;5.712;2022-07-03T13:47:22;101657.22;;;23.49;55.92
42105;BME280;61464;51.472;5.712;2022-07-03T13:49:48;101663.53;;;23.48;56.01
42105;BME280;61464;51.472;5.712;2022-07-03T13:52:14;101660.69;;;23.49;55.73
42105;BME280;61464;51.472;5.712;2022-07-03T13:54:40;101653.53;;;23.50;55.19
42105;BME280;61464;51.472;5.712;2022-07-03T13:57:06;101649.50;;;23.47;55.59
42105;BME280;61464;51.472;5.712;2022-07-03T13:59:32;101667.03;;;23.48;56.37
42105;BME280;61464;51.472;5.712;2022-07-03T14:01:58;101671.50;;;23.48;55.68
42105;BME280;61464;51.472;5.712;2022-07-03T14:04:24;101666.44;;;23.46;56.30
42105;BME280;61464;51.472;5.712;2022-07-03T14:06:50;101658.25;;;23.48;56.60
42105;BME280;61464;51.472;5.712;2022-07-03T14:09:16;101661.72;;;23.48;56.47
42105;BME280;61464;51.472;5.712;2022-07-03T14:11:42;101665.97;;;23.49;55.72
42105;BME280;61464;51.472;5.712;2022-07-03T14:14:08;101649.28;;;23.49;56.36
42105;BME280;61464;51.472;5.712;2022-07-03T14:16:34;101658.84;;;23.50;56.24
42105;BME280;61464;51.472;5.712;2022-07-03T14:19:00;101660.25;;;23.53;55.68
42105;BME280;61464;51.472;5.712;2022-07-03T14:21:29;101663.13;;;23.51;56.04
42105;BME280;61464;51.472;5.712;2022-07-03T14:23:55;101666.56;;;23.52;56.31